createdAt,value
2024-02-24T00:01:59.543Z,9.62
2024-02-24T00:04:27.021Z,9.55
2024-02-24T00:06:54.462Z,9.58
2024-02-24T00:09:21.896Z,9.71
2024-02-24T00:11:49.456Z,9.36
2024-02-24T00:14:17.288Z,9.66
2024-02-24T00:16:44.718Z,9.57
2024-02-24T00:19:13.442Z,9.66
2024-02-24T00:21:40.860Z,9.62
2024-02-24T00:24:08.370Z,9.72
2024-02-24T00:26:35.912Z,9.64
2024-02-24T00:29:03.435Z,9.86
2024-02-24T00:31:30.865Z,9.73
2024-02-24T00:33:58.345Z,9.73
2024-02-24T00:36:27.510Z,9.67
2024-02-24T00:38:54.951Z,9.61
2024-02-24T00:41:22.428Z,9.32
2024-02-24T00:43:49.848Z,9.37
2024-02-24T00:46:17.245Z,9.14
2024-02-24T00:48:44.702Z,9.30
2024-02-24T00:51:12.212Z,9.09
2024-02-24T00:53:41.188Z,9.22
2024-02-24T00:56:08.716Z,9.18
2024-02-24T00:58:36.128Z,9.12
2024-02-24T01:01:04.339Z,8.91
2024-02-24T01:03:31.815Z,8.68
2024-02-24T01:05:59.264Z,8.80
2024-02-24T01:08:26.703Z,8.89
2024-02-24T01:10:55.474Z,9.11
2024-02-24T01:13:22.987Z,9.18
2024-02-24T01:15:50.388Z,9.19
2024-02-24T01:18:17.940Z,9.36
2024-02-24T01:20:49.508Z,9.39
2024-02-24T01:23:17.205Z,9.43
2024-02-24T01:25:45.646Z,9.32
2024-02-24T01:28:14.555Z,9.14
2024-02-24T01:30:41.952Z,9.31
2024-02-24T01:33:10.888Z,9.12
2024-02-24T01:35:38.430Z,9.30
2024-02-24T01:38:06.924Z,9.26
2024-02-24T01:40:34.397Z,8.98
2024-02-24T01:43:01.837Z,8.59
2024-02-24T01:45:30.626Z,8.66
2024-02-24T01:47:58.671Z,8.68
2024-02-24T01:50:26.525Z,8.66
2024-02-24T01:52:55.024Z,8.63
2024-02-24T01:55:22.494Z,8.39
2024-02-24T01:57:53.949Z,8.46
2024-02-24T02:00:21.791Z,8.56
2024-02-24T02:02:51.166Z,8.46
2024-02-24T02:05:18.695Z,8.39
2024-02-24T02:07:46.157Z,7.93
2024-02-24T02:10:13.655Z,7.75
2024-02-24T02:12:41.162Z,7.62
2024-02-24T02:15:09.826Z,7.91
2024-02-24T02:17:38.041Z,7.83
2024-02-24T02:20:09.239Z,7.86
2024-02-24T02:22:38.151Z,7.85
2024-02-24T02:25:06.283Z,7.82
2024-02-24T02:27:33.637Z,7.76
2024-02-24T02:30:02.627Z,7.78
2024-02-24T02:32:30.251Z,7.62
2024-02-24T02:34:58.213Z,7.58
2024-02-24T02:37:25.623Z,7.61
2024-02-24T02:39:54.374Z,7.52
2024-02-24T02:42:21.981Z,7.39
2024-02-24T02:44:49.456Z,7.40
2024-02-24T02:47:19.993Z,7.23
2024-02-24T02:49:51.276Z,7.18
2024-02-24T02:52:18.732Z,7.02
2024-02-24T02:54:46.214Z,6.92
2024-02-24T02:57:14.946Z,6.96
2024-02-24T02:59:42.474Z,6.67
2024-02-24T03:02:10.015Z,6.96
2024-02-24T03:04:37.450Z,7.07
2024-02-24T03:07:05.054Z,7.16
2024-02-24T03:09:32.497Z,7.24
2024-02-24T03:12:00.160Z,6.99
2024-02-24T03:14:29.092Z,6.80
2024-02-24T03:16:56.541Z,6.88
2024-02-24T03:19:24.106Z,7.05
2024-02-24T03:21:51.593Z,7.00
2024-02-24T03:24:19.003Z,6.95
2024-02-24T03:26:46.449Z,7.03
2024-02-24T03:29:13.920Z,6.93
2024-02-24T03:31:42.752Z,6.78
2024-02-24T03:34:10.263Z,6.60
2024-02-24T03:36:37.774Z,6.62
2024-02-24T03:39:05.399Z,6.20
2024-02-24T03:41:33.403Z,6.31
2024-02-24T03:44:01.001Z,6.72
2024-02-24T03:46:28.478Z,6.79
2024-02-24T03:48:57.432Z,6.63
2024-02-24T03:51:25.001Z,6.57
2024-02-24T03:53:52.398Z,6.68
2024-02-24T03:56:19.884Z,6.84
2024-02-24T03:58:47.441Z,6.71
2024-02-24T04:01:14.888Z,6.57
2024-02-24T04:03:42.413Z,6.82
2024-02-24T04:06:11.260Z,6.85
2024-02-24T04:08:38.676Z,7.07
2024-02-24T04:11:06.254Z,7.08
2024-02-24T04:13:33.785Z,7.15
2024-02-24T04:16:01.206Z,7.21
2024-02-24T04:18:28.716Z,7.31
2024-02-24T04:20:56.300Z,7.10
2024-02-24T04:23:25.147Z,6.73
2024-02-24T04:25:52.620Z,6.89
2024-02-24T04:28:22.628Z,6.67
2024-02-24T04:30:50.512Z,6.81
2024-02-24T04:33:19.036Z,6.86
2024-02-24T04:35:47.035Z,7.01
2024-02-24T04:38:14.491Z,6.97
2024-02-24T04:40:43.429Z,6.38
2024-02-24T04:43:10.865Z,6.57
2024-02-24T04:45:38.528Z,6.71
2024-02-24T04:48:06.752Z,6.11
2024-02-24T04:50:34.309Z,6.57
2024-02-24T04:53:01.747Z,6.11
2024-02-24T04:55:29.167Z,6.50
2024-02-24T04:57:57.943Z,6.49
2024-02-24T05:00:26.331Z,6.43
2024-02-24T05:02:54.022Z,6.21
2024-02-24T05:05:21.738Z,6.50
2024-02-24T05:07:49.313Z,5.90
2024-02-24T05:10:16.791Z,6.30
2024-02-24T05:12:48.796Z,6.46
2024-02-24T05:15:19.355Z,6.03
2024-02-24T05:17:47.168Z,6.06
2024-02-24T05:20:14.955Z,6.22
2024-02-24T05:22:42.611Z,6.33
2024-02-24T05:25:10.598Z,6.26
2024-02-24T05:27:38.522Z,6.13
2024-02-24T05:30:07.282Z,6.07
2024-02-24T05:32:36.193Z,6.13
2024-02-24T05:35:03.750Z,5.95
2024-02-24T05:37:31.154Z,6.08
2024-02-24T05:39:59.573Z,6.02
2024-02-24T05:42:27.511Z,5.88
2024-02-24T05:44:55.007Z,6.10
2024-02-24T05:47:22.521Z,6.19
2024-02-24T05:49:51.321Z,6.20
2024-02-24T05:52:19.474Z,6.19
2024-02-24T05:54:46.923Z,5.88
2024-02-24T05:57:14.411Z,5.84
2024-02-24T05:59:41.847Z,5.68
2024-02-24T06:02:09.305Z,5.77
2024-02-24T06:04:37.503Z,5.69
2024-02-24T06:07:06.534Z,5.83
2024-02-24T06:09:33.944Z,6.00
2024-02-24T06:12:01.462Z,5.99
2024-02-24T06:14:29.016Z,6.11
2024-02-24T06:16:56.461Z,5.88
2024-02-24T06:19:23.974Z,6.08
2024-02-24T06:21:51.473Z,6.04
2024-02-24T06:24:20.917Z,5.94
2024-02-24T06:26:48.475Z,5.87
2024-02-24T06:29:17.089Z,6.02
2024-02-24T06:31:44.562Z,6.01
2024-02-24T06:34:12.058Z,5.92
2024-02-24T06:36:39.530Z,5.97
2024-02-24T06:39:08.491Z,6.07
2024-02-24T06:41:37.369Z,6.10
2024-02-24T06:44:05.087Z,6.09
2024-02-24T06:46:32.584Z,6.18
2024-02-24T06:49:00.298Z,6.31
2024-02-24T06:51:27.893Z,6.44
2024-02-24T06:53:55.848Z,6.28
2024-02-24T06:56:23.475Z,6.61
2024-02-24T06:58:52.270Z,6.85
2024-02-24T07:01:23.665Z,7.03
2024-02-24T07:03:51.240Z,7.04
2024-02-24T07:06:19.829Z,7.09
2024-02-24T07:08:47.814Z,7.26
2024-02-24T07:11:15.439Z,7.40
2024-02-24T07:13:42.929Z,7.35
2024-02-24T07:16:12.350Z,7.54
2024-02-24T07:18:39.859Z,7.75
2024-02-24T07:21:07.823Z,7.82
2024-02-24T07:23:35.498Z,7.99
2024-02-24T07:26:03.739Z,8.26
2024-02-24T07:28:32.248Z,8.31
2024-02-24T07:30:59.743Z,8.62
2024-02-24T07:33:28.627Z,8.45
2024-02-24T07:35:56.231Z,8.77
2024-02-24T07:38:23.724Z,8.76
2024-02-24T07:40:51.255Z,9.08
2024-02-24T07:43:18.693Z,9.26
2024-02-24T07:45:46.151Z,9.60
2024-02-24T07:48:13.966Z,9.75
2024-02-24T07:50:42.770Z,9.81
2024-02-24T07:53:10.259Z,10.09
2024-02-24T07:55:37.754Z,10.32
2024-02-24T07:58:05.487Z,10.02
2024-02-24T08:00:32.919Z,9.86
2024-02-24T08:03:01.651Z,10.06
2024-02-24T08:05:29.118Z,10.28
2024-02-24T08:07:57.846Z,10.58
2024-02-24T08:10:25.255Z,10.81
2024-02-24T08:12:53.745Z,11.13
2024-02-24T08:15:21.194Z,11.06
2024-02-24T08:17:48.660Z,11.18
2024-02-24T08:20:16.194Z,11.28
2024-02-24T08:22:44.861Z,11.44
2024-02-24T08:25:13.674Z,11.57
2024-02-24T08:27:41.136Z,11.61
2024-02-24T08:30:10.272Z,12.01
2024-02-24T08:32:37.810Z,12.21
2024-02-24T08:35:06.518Z,11.58
2024-02-24T08:37:34.125Z,11.56
2024-02-24T08:40:01.544Z,12.05
2024-02-24T08:42:30.274Z,12.14
2024-02-24T08:44:57.801Z,12.47
2024-02-24T08:47:25.316Z,11.88
2024-02-24T08:49:52.799Z,11.71
2024-02-24T08:52:22.739Z,11.67
2024-02-24T08:54:57.307Z,12.05
2024-02-24T08:57:24.822Z,11.47
2024-02-24T08:59:53.587Z,12.73
2024-02-24T09:02:21.962Z,13.31
2024-02-24T09:04:49.400Z,13.02
2024-02-24T09:07:16.905Z,13.38
2024-02-24T09:09:44.351Z,13.98
2024-02-24T09:12:11.807Z,13.42
2024-02-24T09:14:39.322Z,13.69
2024-02-24T09:17:08.134Z,13.64
2024-02-24T09:19:35.641Z,13.86
2024-02-24T09:22:03.153Z,13.79
2024-02-24T09:24:30.578Z,13.38
2024-02-24T09:26:58.044Z,12.88
2024-02-24T09:29:25.514Z,13.54
2024-02-24T09:31:52.975Z,13.51
2024-02-24T09:34:21.849Z,14.04
2024-02-24T09:36:49.298Z,13.66
2024-02-24T09:39:16.737Z,13.47
2024-02-24T09:41:44.277Z,14.27
2024-02-24T09:44:11.941Z,13.89
2024-02-24T09:46:41.863Z,14.70
2024-02-24T09:49:13.959Z,14.22
2024-02-24T09:51:47.354Z,13.77
2024-02-24T09:54:15.072Z,14.32
2024-02-24T09:56:44.126Z,13.81
2024-02-24T09:59:12.292Z,14.76
2024-02-24T10:01:39.790Z,14.61
2024-02-24T10:04:08.314Z,15.25
2024-02-24T10:06:36.021Z,15.27
2024-02-24T10:09:05.646Z,15.46
2024-02-24T10:11:35.273Z,15.18
2024-02-24T10:14:02.803Z,15.81
2024-02-24T10:16:30.238Z,16.43
2024-02-24T10:18:57.741Z,16.58
2024-02-24T10:21:25.224Z,16.43
2024-02-24T10:23:52.742Z,16.38
2024-02-24T10:26:21.959Z,17.05
2024-02-24T10:28:49.457Z,17.11
2024-02-24T10:31:16.988Z,16.92
2024-02-24T10:33:45.118Z,17.12
2024-02-24T10:36:13.901Z,17.40
2024-02-24T10:38:48.229Z,16.99
2024-02-24T10:41:23.589Z,17.77
2024-02-24T10:44:01.756Z,17.38
2024-02-24T10:46:33.748Z,16.70
2024-02-24T10:49:01.847Z,16.46
2024-02-24T10:51:29.361Z,16.86
2024-02-24T10:54:00.817Z,17.13
2024-02-24T10:56:30.847Z,17.48
2024-02-24T10:59:07.647Z,17.81
2024-02-24T11:01:42.600Z,17.42
2024-02-24T11:04:11.703Z,17.11
2024-02-24T11:06:45.846Z,16.94
2024-02-24T11:09:17.064Z,17.41
2024-02-24T11:11:46.524Z,17.02
2024-02-24T11:14:14.072Z,16.10
2024-02-24T11:16:43.253Z,16.25
2024-02-24T11:19:13.535Z,16.16
2024-02-24T11:22:01.828Z,16.09
2024-02-24T11:24:33.641Z,15.55
2024-02-24T11:27:03.201Z,15.78
2024-02-24T11:29:31.349Z,15.63
2024-02-24T11:32:11.079Z,15.74
2024-02-24T11:34:38.823Z,16.23
2024-02-24T11:37:06.547Z,15.66
2024-02-24T11:42:12.190Z,15.22
2024-02-24T11:44:44.426Z,15.30
2024-02-24T11:47:11.901Z,15.49
2024-02-24T11:49:45.640Z,15.21
2024-02-24T11:52:13.207Z,15.48
2024-02-24T11:54:41.002Z,15.90
2024-02-24T11:57:11.393Z,15.25
2024-02-24T11:59:39.222Z,14.89
2024-02-24T12:02:06.770Z,15.85
2024-02-24T12:04:34.554Z,15.96
2024-02-24T12:07:05.431Z,14.97
2024-02-24T12:09:33.137Z,16.20
2024-02-24T12:12:00.858Z,16.62
2024-02-24T12:14:30.970Z,17.05
2024-02-24T12:16:58.946Z,17.61
2024-02-24T12:19:29.366Z,16.19
2024-02-24T12:21:57.223Z,16.82
2024-02-24T12:24:29.076Z,16.24
2024-02-24T12:27:00.698Z,15.62
2024-02-24T12:29:31.683Z,14.62
2024-02-24T12:31:59.284Z,14.58
2024-02-24T12:34:26.925Z,14.19
2024-02-24T12:36:57.727Z,14.70
2024-02-24T12:39:26.385Z,14.96
2024-02-24T12:41:54.211Z,14.34
2024-02-24T12:44:21.786Z,14.30
2024-02-24T12:46:50.744Z,14.92
2024-02-24T12:49:18.318Z,15.06
2024-02-24T12:51:52.482Z,15.12
2024-02-24T12:54:19.932Z,15.75
2024-02-24T12:56:47.417Z,16.81
2024-02-24T12:59:15.366Z,15.87
2024-02-24T13:01:42.826Z,16.22
2024-02-24T13:04:11.603Z,16.39
2024-02-24T13:06:40.595Z,16.93
2024-02-24T13:09:08.332Z,16.93
2024-02-24T13:11:35.896Z,16.35
2024-02-24T13:14:03.400Z,16.45
2024-02-24T13:16:30.841Z,15.86
2024-02-24T13:18:58.638Z,16.71
2024-02-24T13:21:27.503Z,16.25
2024-02-24T13:23:55.161Z,16.61
2024-02-24T13:26:22.647Z,15.50
2024-02-24T13:28:50.074Z,16.24
2024-02-24T13:31:22.346Z,16.29
2024-02-24T13:33:51.084Z,16.75
2024-02-24T13:36:18.620Z,16.77
2024-02-24T13:38:47.415Z,16.89
2024-02-24T13:41:14.991Z,16.78
2024-02-24T13:43:42.513Z,16.18
2024-02-24T13:46:09.968Z,16.11
2024-02-24T13:48:37.434Z,15.35
2024-02-24T13:51:05.836Z,15.11
2024-02-24T13:53:33.504Z,15.60
2024-02-24T13:56:02.726Z,15.49
2024-02-24T13:58:31.135Z,14.90
2024-02-24T14:01:00.131Z,14.18
2024-02-24T14:03:27.772Z,14.46
2024-02-24T14:08:23.176Z,15.09
2024-02-24T14:10:50.639Z,15.00
2024-02-24T14:13:19.395Z,14.69
2024-02-24T14:15:47.967Z,13.98
2024-02-24T14:18:15.800Z,14.06
2024-02-24T14:20:43.456Z,14.91
2024-02-24T14:23:10.992Z,15.05
2024-02-24T14:25:38.436Z,14.76
2024-02-24T14:28:11.162Z,14.63
2024-02-24T14:30:40.357Z,15.26
2024-02-24T14:33:08.170Z,15.07
2024-02-24T14:35:39.398Z,15.36
2024-02-24T14:38:07.067Z,15.24
2024-02-24T14:40:34.498Z,15.39
2024-02-24T14:43:02.150Z,15.46
2024-02-24T14:45:31.308Z,15.60
2024-02-24T14:48:04.254Z,15.58
2024-02-24T14:50:33.391Z,14.03
2024-02-24T14:53:00.928Z,15.24
2024-02-24T14:55:28.339Z,15.37
2024-02-24T14:57:56.194Z,15.80
2024-02-24T15:00:24.062Z,15.90
2024-02-24T15:03:04.486Z,16.17
2024-02-24T15:05:39.216Z,15.46
2024-02-24T15:08:07.604Z,15.06
2024-02-24T15:10:35.063Z,15.09
2024-02-24T15:13:02.524Z,15.41
2024-02-24T15:15:30.231Z,15.36
2024-02-24T15:17:59.778Z,14.63
2024-02-24T15:20:27.442Z,15.16
2024-02-24T15:22:56.209Z,15.14
2024-02-24T15:25:23.747Z,14.97
2024-02-24T15:27:51.181Z,14.79
2024-02-24T15:30:18.752Z,14.52
2024-02-24T15:32:46.240Z,14.87
2024-02-24T15:35:13.875Z,14.78
2024-02-24T15:37:41.361Z,14.59
2024-02-24T15:40:12.348Z,14.24
2024-02-24T15:42:40.092Z,14.28
2024-02-24T15:45:08.396Z,14.41
2024-02-24T15:47:36.881Z,13.25
2024-02-24T15:50:05.284Z,13.73
2024-02-24T15:52:32.750Z,14.13
2024-02-24T15:55:00.211Z,13.95
2024-02-24T15:57:28.933Z,14.03
2024-02-24T15:59:56.982Z,14.07
2024-02-24T16:02:25.112Z,14.03
2024-02-24T16:04:52.614Z,13.84
2024-02-24T16:07:20.081Z,13.70
2024-02-24T16:09:47.563Z,13.62
2024-02-24T16:12:17.926Z,13.42
2024-02-24T16:14:46.807Z,13.50
2024-02-24T16:17:16.593Z,13.42
2024-02-24T16:19:44.065Z,13.27
2024-02-24T16:22:11.540Z,13.09
2024-02-24T16:24:38.954Z,13.13
2024-02-24T16:27:06.995Z,13.06
2024-02-24T16:29:35.213Z,12.91
2024-02-24T16:32:07.482Z,12.95
2024-02-24T16:34:37.120Z,12.89
2024-02-24T16:37:04.929Z,13.02
2024-02-24T16:39:33.762Z,12.85
2024-02-24T16:42:01.987Z,12.88
2024-02-24T16:44:29.716Z,12.78
2024-02-24T16:46:57.266Z,12.79
2024-02-24T16:49:26.035Z,12.62
2024-02-24T16:51:53.916Z,12.46
2024-02-24T16:54:21.693Z,12.32
2024-02-24T16:56:49.177Z,11.99
2024-02-24T16:59:16.725Z,12.11
2024-02-24T17:01:44.600Z,12.11
2024-02-24T17:04:12.447Z,12.25
2024-02-24T17:06:41.706Z,12.28
2024-02-24T17:09:09.981Z,12.20
2024-02-24T17:11:37.877Z,12.05
2024-02-24T17:14:05.391Z,12.05
2024-02-24T17:16:32.815Z,12.16
2024-02-24T17:19:00.363Z,11.99
2024-02-24T17:21:30.877Z,12.00
2024-02-24T17:24:00.706Z,11.77
2024-02-24T17:26:28.241Z,11.94
2024-02-24T17:28:55.706Z,11.77
2024-02-24T17:31:23.149Z,11.62
2024-02-24T17:33:50.622Z,11.57
2024-02-24T17:36:18.172Z,11.50
2024-02-24T17:38:45.742Z,11.56
2024-02-24T17:41:15.816Z,11.54
2024-02-24T17:43:43.345Z,11.44
2024-02-24T17:46:10.749Z,11.56
2024-02-24T17:48:38.289Z,11.22
2024-02-24T17:51:06.488Z,11.36
2024-02-24T17:53:33.959Z,11.46
2024-02-24T17:56:01.609Z,11.27
2024-02-24T17:58:40.049Z,11.45
2024-02-24T18:01:11.882Z,11.14
2024-02-24T18:03:39.375Z,11.35
2024-02-24T18:06:07.162Z,11.30
2024-02-24T18:08:34.705Z,11.13
2024-02-24T18:11:02.159Z,11.29
2024-02-24T18:13:30.932Z,11.25
2024-02-24T18:15:58.375Z,10.92
2024-02-24T18:18:25.925Z,10.82
2024-02-24T18:20:53.742Z,10.45
2024-02-24T18:23:21.249Z,10.47
2024-02-24T18:25:48.669Z,10.57
2024-02-24T18:28:16.095Z,10.32
2024-02-24T18:30:45.036Z,10.36
2024-02-24T18:33:12.568Z,10.29
2024-02-24T18:35:40.108Z,10.33
2024-02-24T18:38:07.520Z,10.24
2024-02-24T18:40:34.917Z,10.14
2024-02-24T18:43:02.321Z,10.23
2024-02-24T18:45:29.755Z,9.97
2024-02-24T18:47:58.610Z,9.89
2024-02-24T18:50:26.150Z,9.88
2024-02-24T18:52:53.766Z,9.74
2024-02-24T18:55:21.218Z,9.48
2024-02-24T18:57:48.618Z,9.37
2024-02-24T19:00:17.143Z,9.59
2024-02-24T19:02:44.653Z,9.36
2024-02-24T19:05:13.759Z,9.18
2024-02-24T19:07:43.857Z,9.29
2024-02-24T19:10:11.432Z,9.34
2024-02-24T19:12:38.856Z,9.22
2024-02-24T19:15:06.947Z,9.05
2024-02-24T19:17:34.672Z,9.22
2024-02-24T19:20:05.455Z,9.01
2024-02-24T19:22:34.216Z,8.96
2024-02-24T19:25:02.202Z,8.88
2024-02-24T19:27:29.760Z,8.49
2024-02-24T19:29:57.269Z,8.47
2024-02-24T19:32:24.856Z,8.36
2024-02-24T19:34:53.291Z,8.47
2024-02-24T19:37:21.142Z,8.52
2024-02-24T19:39:50.275Z,8.44
2024-02-24T19:42:17.717Z,8.40
2024-02-24T19:44:45.115Z,7.42
2024-02-24T19:47:13.436Z,7.13
2024-02-24T19:49:41.027Z,7.72
2024-02-24T19:52:08.561Z,7.87
2024-02-24T19:54:36.260Z,7.67
2024-02-24T19:57:05.318Z,7.98
2024-02-24T19:59:33.968Z,7.94
2024-02-24T20:02:01.423Z,7.75
2024-02-24T20:04:31.083Z,7.86
2024-02-24T20:06:58.763Z,7.70
2024-02-24T20:09:26.245Z,7.66
2024-02-24T20:11:53.699Z,7.51
2024-02-24T20:14:22.557Z,7.66
2024-02-24T20:16:49.989Z,7.63
2024-02-24T20:19:17.497Z,7.24
2024-02-24T20:21:44.966Z,7.18
2024-02-24T20:24:12.392Z,7.51
2024-02-24T20:26:39.933Z,7.62
2024-02-24T20:29:08.842Z,7.47
2024-02-24T20:31:37.656Z,7.21
2024-02-24T20:34:08.361Z,7.33
2024-02-24T20:36:36.622Z,7.48
2024-02-24T20:39:04.419Z,7.42
2024-02-24T20:41:32.107Z,7.76
2024-02-24T20:44:01.203Z,8.07
2024-02-24T20:46:28.706Z,8.17
2024-02-24T20:48:57.525Z,7.96
2024-02-24T20:51:25.553Z,8.12
2024-02-24T20:53:53.450Z,8.03
2024-02-24T20:56:21.017Z,7.56
2024-02-24T20:58:48.418Z,7.89
2024-02-24T21:01:15.858Z,7.99
2024-02-24T21:03:43.476Z,7.58
2024-02-24T21:06:12.369Z,7.73
2024-02-24T21:08:39.935Z,7.60
2024-02-24T21:11:08.061Z,7.56
2024-02-24T21:13:35.829Z,7.48
2024-02-24T21:16:03.250Z,7.39
2024-02-24T21:18:32.060Z,7.40
2024-02-24T21:20:59.745Z,7.60
2024-02-24T21:23:29.251Z,7.55
2024-02-24T21:25:56.805Z,7.66
2024-02-24T21:28:24.214Z,7.75
2024-02-24T21:30:51.712Z,7.85
2024-02-24T21:33:19.429Z,7.97
2024-02-24T21:35:49.710Z,7.88
2024-02-24T21:38:17.158Z,8.02
2024-02-24T21:40:45.898Z,7.91
2024-02-24T21:43:13.313Z,8.09
2024-02-24T21:45:40.761Z,7.93
2024-02-24T21:48:09.104Z,8.07
2024-02-24T21:50:37.249Z,8.07
2024-02-24T21:53:05.037Z,7.59
2024-02-24T21:55:33.344Z,7.50
2024-02-24T21:58:02.076Z,7.32
2024-02-24T22:00:29.652Z,7.11
2024-02-24T22:02:57.896Z,7.32
2024-02-24T22:05:25.471Z,7.37
2024-02-24T22:07:53.000Z,7.41
2024-02-24T22:10:20.638Z,7.54
2024-02-24T22:12:48.057Z,7.44
2024-02-24T22:15:18.706Z,7.13
2024-02-24T22:17:46.919Z,7.28
2024-02-24T22:20:14.553Z,7.42
2024-02-24T22:22:42.069Z,7.19
2024-02-24T22:25:09.999Z,7.23
2024-02-24T22:27:38.393Z,7.23
2024-02-24T22:30:13.390Z,7.39
2024-02-24T22:32:45.706Z,7.37
2024-02-24T22:35:13.493Z,7.52
2024-02-24T22:37:41.069Z,7.26
2024-02-24T22:40:09.921Z,7.51
2024-02-24T22:42:37.345Z,7.33
2024-02-24T22:45:07.626Z,7.58
2024-02-24T22:47:35.199Z,7.59
2024-02-24T22:50:04.341Z,7.84
2024-02-24T22:52:31.769Z,7.70
2024-02-24T22:54:59.251Z,7.88
2024-02-24T22:57:26.668Z,7.94
2024-02-24T22:59:54.143Z,7.98
2024-02-24T23:02:21.642Z,8.04
2024-02-24T23:04:48.192Z,7.93
2024-02-24T23:07:17.019Z,7.82
2024-02-24T23:09:44.558Z,7.95
2024-02-24T23:12:12.374Z,7.94
2024-02-24T23:14:39.908Z,7.69
2024-02-24T23:17:07.391Z,7.63
2024-02-24T23:19:34.946Z,7.79
2024-02-24T23:22:02.476Z,7.84
2024-02-24T23:24:31.276Z,7.70
2024-02-24T23:27:00.937Z,7.64
2024-02-24T23:29:30.079Z,7.41
2024-02-24T23:31:57.489Z,7.77
2024-02-24T23:34:24.974Z,7.81
2024-02-24T23:36:52.451Z,7.85
2024-02-24T23:39:19.877Z,7.96
2024-02-24T23:41:50.250Z,8.03
2024-02-24T23:44:18.891Z,8.00
2024-02-24T23:46:46.269Z,7.86
2024-02-24T23:49:16.107Z,7.66
2024-02-24T23:51:43.723Z,7.70
2024-02-24T23:54:11.386Z,7.96
2024-02-24T23:56:39.026Z,8.05
2024-02-24T23:59:08.374Z,8.09
